sensor_id;sensor_type;location;lat;lon;timestamp;P1;durP1;ratioP1;P2;durP2;ratioP2
70761;SDS011;58360;0.000;0.000;2023-06-14T00:01:32;8.80;;;5.50;;
70761;SDS011;58360;0.000;0.000;2023-06-14T00:03:59;12.25;;;5.40;;
70761;SDS011;58360;0.000;0.000;2023-06-14T00:06:26;10.75;;;5.63;;
70761;SDS011;58360;0.000;0.000;2023-06-14T00:08:53;6.72;;;4.68;;
70761;SDS011;58360;0.000;0.000;2023-06-14T00:11:19;8.32;;;5.30;;
70761;SDS011;58360;0.000;0.000;2023-06-14T00:13:45;11.23;;;5.50;;
70761;SDS011;58360;0.000;0.000;2023-06-14T00:16:11;11.23;;;5.32;;
70761;SDS011;58360;0.000;0.000;2023-06-14T00:18:37;8.32;;;5.47;;
70761;SDS011;58360;0.000;0.000;2023-06-14T00:21:03;10.57;;;6.00;;
70761;SDS011;58360;0.000;0.000;2023-06-14T00:23:29;9.30;;;5.65;;
70761;SDS011;58360;0.000;0.000;2023-06-14T00:25:55;9.77;;;5.35;;
70761;SDS011;58360;0.000;0.000;2023-06-14T00:28:21;13.15;;;5.70;;
70761;SDS011;58360;0.000;0.000;2023-06-14T00:30:46;9.02;;;5.65;;
70761;SDS011;58360;0.000;0.000;2023-06-14T00:33:12;10.93;;;5.63;;
70761;SDS011;58360;0.000;0.000;2023-06-14T00:35:38;12.10;;;5.95;;
70761;SDS011;58360;0.000;0.000;2023-06-14T00:38:05;12.25;;;5.88;;
70761;SDS011;58360;0.000;0.000;2023-06-14T00:40:31;11.38;;;5.68;;
70761;SDS011;58360;0.000;0.000;2023-06-14T00:42:56;9.48;;;6.20;;
70761;SDS011;58360;0.000;0.000;2023-06-14T00:45:22;14.32;;;6.15;;
70761;SDS011;58360;0.000;0.000;2023-06-14T00:47:48;11.65;;;6.45;;
70761;SDS011;58360;0.000;0.000;2023-06-14T00:50:17;13.60;;;6.30;;
70761;SDS011;58360;0.000;0.000;2023-06-14T00:52:48;14.85;;;6.35;;
70761;SDS011;58360;0.000;0.000;2023-06-14T00:55:14;11.07;;;6.55;;
70761;SDS011;58360;0.000;0.000;2023-06-14T00:57:40;11.40;;;6.75;;
70761;SDS011;58360;0.000;0.000;2023-06-14T01:00:06;10.65;;;6.50;;
70761;SDS011;58360;0.000;0.000;2023-06-14T01:02:35;8.15;;;5.68;;
70761;SDS011;58360;0.000;0.000;2023-06-14T01:05:02;10.27;;;6.50;;
70761;SDS011;58360;0.000;0.000;2023-06-14T01:12:54;9.23;;;6.45;;
70761;SDS011;58360;0.000;0.000;2023-06-14T01:15:45;10.65;;;6.65;;
70761;SDS011;58360;0.000;0.000;2023-06-14T01:18:12;13.68;;;6.40;;
70761;SDS011;58360;0.000;0.000;2023-06-14T01:23:10;9.63;;;6.75;;
70761;SDS011;58360;0.000;0.000;2023-06-14T01:25:40;10.23;;;6.55;;
70761;SDS011;58360;0.000;0.000;2023-06-14T01:28:09;14.82;;;7.20;;
70761;SDS011;58360;0.000;0.000;2023-06-14T01:30:39;13.27;;;6.35;;
70761;SDS011;58360;0.000;0.000;2023-06-14T01:33:14;9.50;;;6.50;;
70761;SDS011;58360;0.000;0.000;2023-06-14T01:35:45;10.13;;;6.18;;
70761;SDS011;58360;0.000;0.000;2023-06-14T01:38:13;13.07;;;6.57;;
70761;SDS011;58360;0.000;0.000;2023-06-14T01:40:40;11.10;;;6.78;;
70761;SDS011;58360;0.000;0.000;2023-06-14T01:43:08;11.25;;;6.15;;
70761;SDS011;58360;0.000;0.000;2023-06-14T01:45:35;10.55;;;6.38;;
70761;SDS011;58360;0.000;0.000;2023-06-14T01:48:02;11.88;;;6.10;;
70761;SDS011;58360;0.000;0.000;2023-06-14T01:50:30;9.73;;;6.30;;
70761;SDS011;58360;0.000;0.000;2023-06-14T01:52:56;10.02;;;6.28;;
70761;SDS011;58360;0.000;0.000;2023-06-14T01:55:22;9.13;;;6.07;;
70761;SDS011;58360;0.000;0.000;2023-06-14T01:57:49;10.43;;;6.32;;
70761;SDS011;58360;0.000;0.000;2023-06-14T02:00:15;12.00;;;6.47;;
70761;SDS011;58360;0.000;0.000;2023-06-14T02:02:43;11.90;;;6.40;;
70761;SDS011;58360;0.000;0.000;2023-06-14T02:05:09;9.52;;;6.22;;
70761;SDS011;58360;0.000;0.000;2023-06-14T02:07:35;12.25;;;6.32;;
70761;SDS011;58360;0.000;0.000;2023-06-14T02:10:02;10.30;;;6.07;;
70761;SDS011;58360;0.000;0.000;2023-06-14T02:12:29;9.27;;;5.63;;
70761;SDS011;58360;0.000;0.000;2023-06-14T02:14:54;9.65;;;5.70;;
70761;SDS011;58360;0.000;0.000;2023-06-14T02:17:21;13.10;;;5.93;;
70761;SDS011;58360;0.000;0.000;2023-06-14T02:19:47;11.02;;;6.43;;
70761;SDS011;58360;0.000;0.000;2023-06-14T02:22:13;15.25;;;6.55;;
70761;SDS011;58360;0.000;0.000;2023-06-14T02:24:40;11.70;;;6.53;;
70761;SDS011;58360;0.000;0.000;2023-06-14T02:27:06;10.95;;;5.80;;
70761;SDS011;58360;0.000;0.000;2023-06-14T02:29:33;11.93;;;6.07;;
70761;SDS011;58360;0.000;0.000;2023-06-14T02:31:59;13.80;;;6.55;;
70761;SDS011;58360;0.000;0.000;2023-06-14T02:34:24;13.20;;;5.75;;
70761;SDS011;58360;0.000;0.000;2023-06-14T02:36:50;10.20;;;5.88;;
70761;SDS011;58360;0.000;0.000;2023-06-14T02:39:17;8.98;;;5.95;;
70761;SDS011;58360;0.000;0.000;2023-06-14T02:41:45;9.82;;;5.85;;
70761;SDS011;58360;0.000;0.000;2023-06-14T02:44:12;9.38;;;5.95;;
70761;SDS011;58360;0.000;0.000;2023-06-14T02:46:38;11.07;;;6.78;;
70761;SDS011;58360;0.000;0.000;2023-06-14T02:49:04;8.52;;;5.43;;
70761;SDS011;58360;0.000;0.000;2023-06-14T02:51:30;12.43;;;5.57;;
70761;SDS011;58360;0.000;0.000;2023-06-14T02:53:55;11.30;;;6.32;;
70761;SDS011;58360;0.000;0.000;2023-06-14T02:56:25;10.40;;;5.90;;
70761;SDS011;58360;0.000;0.000;2023-06-14T02:58:51;8.65;;;5.70;;
70761;SDS011;58360;0.000;0.000;2023-06-14T03:01:16;15.32;;;6.40;;
70761;SDS011;58360;0.000;0.000;2023-06-14T03:03:43;10.05;;;5.63;;
70761;SDS011;58360;0.000;0.000;2023-06-14T03:06:08;12.57;;;5.85;;
70761;SDS011;58360;0.000;0.000;2023-06-14T03:08:38;11.07;;;5.70;;
70761;SDS011;58360;0.000;0.000;2023-06-14T03:11:04;13.02;;;5.75;;
70761;SDS011;58360;0.000;0.000;2023-06-14T03:13:34;10.02;;;5.72;;
70761;SDS011;58360;0.000;0.000;2023-06-14T03:16:00;9.55;;;5.47;;
70761;SDS011;58360;0.000;0.000;2023-06-14T03:18:27;7.95;;;5.60;;
70761;SDS011;58360;0.000;0.000;2023-06-14T03:21:00;8.80;;;5.43;;
70761;SDS011;58360;0.000;0.000;2023-06-14T03:23:26;11.98;;;5.47;;
70761;SDS011;58360;0.000;0.000;2023-06-14T03:25:52;9.55;;;5.50;;
70761;SDS011;58360;0.000;0.000;2023-06-14T03:28:17;9.15;;;5.53;;
70761;SDS011;58360;0.000;0.000;2023-06-14T03:30:43;7.28;;;4.95;;
70761;SDS011;58360;0.000;0.000;2023-06-14T03:33:09;10.00;;;5.43;;
70761;SDS011;58360;0.000;0.000;2023-06-14T03:35:34;14.23;;;5.55;;
70761;SDS011;58360;0.000;0.000;2023-06-14T03:38:00;10.60;;;5.97;;
70761;SDS011;58360;0.000;0.000;2023-06-14T03:40:27;9.45;;;5.38;;
70761;SDS011;58360;0.000;0.000;2023-06-14T03:42:53;16.88;;;5.78;;
70761;SDS011;58360;0.000;0.000;2023-06-14T03:45:20;9.90;;;5.47;;
70761;SDS011;58360;0.000;0.000;2023-06-14T03:47:46;7.78;;;4.85;;
70761;SDS011;58360;0.000;0.000;2023-06-14T03:50:11;9.18;;;5.75;;
70761;SDS011;58360;0.000;0.000;2023-06-14T03:52:37;12.00;;;5.97;;
70761;SDS011;58360;0.000;0.000;2023-06-14T03:55:03;9.43;;;5.28;;
70761;SDS011;58360;0.000;0.000;2023-06-14T03:57:29;10.80;;;5.40;;
70761;SDS011;58360;0.000;0.000;2023-06-14T03:59:55;10.25;;;5.63;;
70761;SDS011;58360;0.000;0.000;2023-06-14T04:02:21;8.75;;;6.00;;
70761;SDS011;58360;0.000;0.000;2023-06-14T04:04:47;15.02;;;6.00;;
70761;SDS011;58360;0.000;0.000;2023-06-14T04:07:14;10.38;;;5.40;;
70761;SDS011;58360;0.000;0.000;2023-06-14T04:09:40;10.77;;;5.70;;
70761;SDS011;58360;0.000;0.000;2023-06-14T04:12:07;9.43;;;5.72;;
70761;SDS011;58360;0.000;0.000;2023-06-14T04:14:39;9.95;;;6.30;;
70761;SDS011;58360;0.000;0.000;2023-06-14T04:17:05;10.88;;;5.93;;
70761;SDS011;58360;0.000;0.000;2023-06-14T04:19:31;11.02;;;5.57;;
70761;SDS011;58360;0.000;0.000;2023-06-14T04:21:58;17.30;;;5.82;;
70761;SDS011;58360;0.000;0.000;2023-06-14T04:24:27;19.92;;;6.45;;
70761;SDS011;58360;0.000;0.000;2023-06-14T04:26:59;13.85;;;6.03;;
70761;SDS011;58360;0.000;0.000;2023-06-14T04:29:28;16.50;;;6.20;;
70761;SDS011;58360;0.000;0.000;2023-06-14T04:31:54;10.43;;;5.90;;
70761;SDS011;58360;0.000;0.000;2023-06-14T04:34:24;14.10;;;5.90;;
70761;SDS011;58360;0.000;0.000;2023-06-14T04:36:57;12.30;;;5.82;;
70761;SDS011;58360;0.000;0.000;2023-06-14T04:39:24;12.40;;;7.07;;
70761;SDS011;58360;0.000;0.000;2023-06-14T04:41:51;13.05;;;6.20;;
70761;SDS011;58360;0.000;0.000;2023-06-14T04:44:18;13.35;;;6.35;;
70761;SDS011;58360;0.000;0.000;2023-06-14T04:46:45;11.77;;;6.55;;
70761;SDS011;58360;0.000;0.000;2023-06-14T04:49:14;15.40;;;6.47;;
70761;SDS011;58360;0.000;0.000;2023-06-14T04:51:41;12.52;;;5.80;;
70761;SDS011;58360;0.000;0.000;2023-06-14T04:54:08;8.52;;;5.60;;
70761;SDS011;58360;0.000;0.000;2023-06-14T04:56:38;9.55;;;6.32;;
70761;SDS011;58360;0.000;0.000;2023-06-14T04:59:05;11.27;;;6.15;;
70761;SDS011;58360;0.000;0.000;2023-06-14T05:01:31;13.98;;;5.78;;
70761;SDS011;58360;0.000;0.000;2023-06-14T05:03:57;10.57;;;6.85;;
70761;SDS011;58360;0.000;0.000;2023-06-14T05:06:23;12.88;;;6.30;;
70761;SDS011;58360;0.000;0.000;2023-06-14T05:08:48;14.95;;;6.90;;
70761;SDS011;58360;0.000;0.000;2023-06-14T05:11:14;12.77;;;6.68;;
70761;SDS011;58360;0.000;0.000;2023-06-14T05:13:41;12.88;;;5.90;;
70761;SDS011;58360;0.000;0.000;2023-06-14T05:16:08;8.80;;;6.10;;
70761;SDS011;58360;0.000;0.000;2023-06-14T05:18:34;18.90;;;7.00;;
70761;SDS011;58360;0.000;0.000;2023-06-14T05:21:00;15.63;;;6.10;;
70761;SDS011;58360;0.000;0.000;2023-06-14T05:23:26;12.23;;;6.10;;
70761;SDS011;58360;0.000;0.000;2023-06-14T05:25:52;13.25;;;6.20;;
70761;SDS011;58360;0.000;0.000;2023-06-14T05:28:18;13.80;;;6.28;;
70761;SDS011;58360;0.000;0.000;2023-06-14T05:30:43;11.75;;;6.05;;
70761;SDS011;58360;0.000;0.000;2023-06-14T05:33:09;10.57;;;5.88;;
70761;SDS011;58360;0.000;0.000;2023-06-14T05:35:35;11.98;;;6.75;;
70761;SDS011;58360;0.000;0.000;2023-06-14T05:38:00;11.40;;;6.35;;
70761;SDS011;58360;0.000;0.000;2023-06-14T05:40:26;13.23;;;6.68;;
70761;SDS011;58360;0.000;0.000;2023-06-14T05:42:52;17.58;;;7.18;;
70761;SDS011;58360;0.000;0.000;2023-06-14T05:45:17;12.68;;;7.75;;
70761;SDS011;58360;0.000;0.000;2023-06-14T05:47:43;17.50;;;7.40;;
70761;SDS011;58360;0.000;0.000;2023-06-14T05:50:09;13.27;;;6.78;;
70761;SDS011;58360;0.000;0.000;2023-06-14T05:52:35;12.02;;;6.88;;
70761;SDS011;58360;0.000;0.000;2023-06-14T05:55:02;11.45;;;6.18;;
70761;SDS011;58360;0.000;0.000;2023-06-14T05:57:28;12.02;;;6.15;;
70761;SDS011;58360;0.000;0.000;2023-06-14T05:59:54;12.88;;;6.38;;
70761;SDS011;58360;0.000;0.000;2023-06-14T06:02:20;12.13;;;6.78;;
70761;SDS011;58360;0.000;0.000;2023-06-14T06:04:45;11.43;;;6.32;;
70761;SDS011;58360;0.000;0.000;2023-06-14T06:07:11;12.65;;;7.28;;
70761;SDS011;58360;0.000;0.000;2023-06-14T06:09:38;22.70;;;7.57;;
70761;SDS011;58360;0.000;0.000;2023-06-14T06:12:05;17.15;;;6.65;;
70761;SDS011;58360;0.000;0.000;2023-06-14T06:14:32;13.80;;;6.80;;
70761;SDS011;58360;0.000;0.000;2023-06-14T06:16:57;11.25;;;6.47;;
70761;SDS011;58360;0.000;0.000;2023-06-14T06:19:23;9.68;;;6.07;;
70761;SDS011;58360;0.000;0.000;2023-06-14T06:21:49;9.98;;;6.53;;
70761;SDS011;58360;0.000;0.000;2023-06-14T06:24:15;14.40;;;6.25;;
70761;SDS011;58360;0.000;0.000;2023-06-14T06:26:41;13.43;;;7.13;;
70761;SDS011;58360;0.000;0.000;2023-06-14T06:29:07;15.40;;;6.72;;
70761;SDS011;58360;0.000;0.000;2023-06-14T06:31:32;11.80;;;6.50;;
70761;SDS011;58360;0.000;0.000;2023-06-14T06:33:58;13.90;;;6.10;;
70761;SDS011;58360;0.000;0.000;2023-06-14T06:36:24;10.05;;;5.90;;
70761;SDS011;58360;0.000;0.000;2023-06-14T06:38:50;9.25;;;5.82;;
70761;SDS011;58360;0.000;0.000;2023-06-14T06:41:15;13.00;;;7.15;;
70761;SDS011;58360;0.000;0.000;2023-06-14T06:43:41;16.38;;;6.60;;
70761;SDS011;58360;0.000;0.000;2023-06-14T06:46:07;12.90;;;7.00;;
70761;SDS011;58360;0.000;0.000;2023-06-14T06:48:33;11.63;;;6.20;;
70761;SDS011;58360;0.000;0.000;2023-06-14T06:50:58;15.35;;;6.38;;
70761;SDS011;58360;0.000;0.000;2023-06-14T06:53:25;13.35;;;7.00;;
70761;SDS011;58360;0.000;0.000;2023-06-14T06:55:52;13.23;;;6.10;;
70761;SDS011;58360;0.000;0.000;2023-06-14T06:58:18;14.23;;;6.10;;
70761;SDS011;58360;0.000;0.000;2023-06-14T07:00:43;15.40;;;5.93;;
70761;SDS011;58360;0.000;0.000;2023-06-14T07:03:09;18.05;;;7.32;;
70761;SDS011;58360;0.000;0.000;2023-06-14T07:05:35;10.95;;;5.85;;
70761;SDS011;58360;0.000;0.000;2023-06-14T07:08:00;8.50;;;5.65;;
70761;SDS011;58360;0.000;0.000;2023-06-14T07:10:26;11.23;;;5.80;;
70761;SDS011;58360;0.000;0.000;2023-06-14T07:12:52;11.23;;;5.30;;
70761;SDS011;58360;0.000;0.000;2023-06-14T07:15:18;8.05;;;5.28;;
70761;SDS011;58360;0.000;0.000;2023-06-14T07:17:47;12.27;;;5.28;;
70761;SDS011;58360;0.000;0.000;2023-06-14T07:20:12;13.25;;;5.18;;
70761;SDS011;58360;0.000;0.000;2023-06-14T07:22:43;12.85;;;5.38;;
70761;SDS011;58360;0.000;0.000;2023-06-14T07:25:09;11.77;;;5.10;;
70761;SDS011;58360;0.000;0.000;2023-06-14T07:27:40;14.50;;;5.50;;
70761;SDS011;58360;0.000;0.000;2023-06-14T07:30:07;9.88;;;5.10;;
70761;SDS011;58360;0.000;0.000;2023-06-14T07:32:34;12.88;;;4.95;;
70761;SDS011;58360;0.000;0.000;2023-06-14T07:35:02;14.32;;;5.85;;
70761;SDS011;58360;0.000;0.000;2023-06-14T07:37:28;11.88;;;5.20;;
70761;SDS011;58360;0.000;0.000;2023-06-14T07:39:55;11.35;;;5.40;;
70761;SDS011;58360;0.000;0.000;2023-06-14T07:42:21;7.13;;;4.70;;
70761;SDS011;58360;0.000;0.000;2023-06-14T07:44:47;11.13;;;4.65;;
70761;SDS011;58360;0.000;0.000;2023-06-14T07:47:12;12.75;;;5.00;;
70761;SDS011;58360;0.000;0.000;2023-06-14T07:49:38;10.18;;;5.32;;
70761;SDS011;58360;0.000;0.000;2023-06-14T07:52:06;12.30;;;5.15;;
70761;SDS011;58360;0.000;0.000;2023-06-14T07:54:32;7.90;;;5.07;;
70761;SDS011;58360;0.000;0.000;2023-06-14T07:56:57;10.10;;;4.38;;
70761;SDS011;58360;0.000;0.000;2023-06-14T07:59:25;8.95;;;5.32;;
70761;SDS011;58360;0.000;0.000;2023-06-14T08:01:52;11.98;;;4.72;;
70761;SDS011;58360;0.000;0.000;2023-06-14T08:04:17;11.27;;;5.13;;
70761;SDS011;58360;0.000;0.000;2023-06-14T08:06:43;13.45;;;5.35;;
70761;SDS011;58360;0.000;0.000;2023-06-14T08:09:10;10.77;;;5.22;;
70761;SDS011;58360;0.000;0.000;2023-06-14T08:11:37;11.00;;;5.25;;
70761;SDS011;58360;0.000;0.000;2023-06-14T08:14:05;12.00;;;5.45;;
70761;SDS011;58360;0.000;0.000;2023-06-14T08:16:31;11.73;;;5.35;;
70761;SDS011;58360;0.000;0.000;2023-06-14T08:18:56;8.90;;;5.05;;
70761;SDS011;58360;0.000;0.000;2023-06-14T08:21:22;7.85;;;5.30;;
70761;SDS011;58360;0.000;0.000;2023-06-14T08:23:48;17.23;;;5.57;;
70761;SDS011;58360;0.000;0.000;2023-06-14T08:26:21;13.50;;;5.00;;
70761;SDS011;58360;0.000;0.000;2023-06-14T08:28:47;13.32;;;5.10;;
70761;SDS011;58360;0.000;0.000;2023-06-14T08:31:13;15.38;;;5.40;;
70761;SDS011;58360;0.000;0.000;2023-06-14T08:33:39;14.30;;;5.78;;
70761;SDS011;58360;0.000;0.000;2023-06-14T08:36:08;8.23;;;4.63;;
70761;SDS011;58360;0.000;0.000;2023-06-14T08:38:35;8.38;;;4.60;;
70761;SDS011;58360;0.000;0.000;2023-06-14T08:41:02;10.40;;;4.40;;
70761;SDS011;58360;0.000;0.000;2023-06-14T08:43:33;8.35;;;4.57;;
70761;SDS011;58360;0.000;0.000;2023-06-14T08:46:00;16.60;;;4.63;;
70761;SDS011;58360;0.000;0.000;2023-06-14T08:48:28;11.35;;;4.30;;
70761;SDS011;58360;0.000;0.000;2023-06-14T08:50:57;9.18;;;3.83;;
70761;SDS011;58360;0.000;0.000;2023-06-14T08:53:32;9.63;;;4.10;;
70761;SDS011;58360;0.000;0.000;2023-06-14T08:56:06;11.90;;;4.88;;
70761;SDS011;58360;0.000;0.000;2023-06-14T08:58:38;12.27;;;4.68;;
70761;SDS011;58360;0.000;0.000;2023-06-14T09:01:10;13.48;;;4.25;;
70761;SDS011;58360;0.000;0.000;2023-06-14T09:03:41;11.13;;;4.28;;
70761;SDS011;58360;0.000;0.000;2023-06-14T09:06:07;6.93;;;3.55;;
70761;SDS011;58360;0.000;0.000;2023-06-14T09:08:38;7.30;;;3.90;;
70761;SDS011;58360;0.000;0.000;2023-06-14T09:11:08;10.38;;;4.07;;
70761;SDS011;58360;0.000;0.000;2023-06-14T09:13:35;10.13;;;4.00;;
70761;SDS011;58360;0.000;0.000;2023-06-14T09:16:01;15.60;;;4.15;;
70761;SDS011;58360;0.000;0.000;2023-06-14T09:18:35;7.18;;;3.80;;
70761;SDS011;58360;0.000;0.000;2023-06-14T09:21:07;7.90;;;4.03;;
70761;SDS011;58360;0.000;0.000;2023-06-14T09:23:42;10.07;;;4.38;;
70761;SDS011;58360;0.000;0.000;2023-06-14T09:26:14;8.80;;;4.15;;
70761;SDS011;58360;0.000;0.000;2023-06-14T09:28:44;7.38;;;3.80;;
70761;SDS011;58360;0.000;0.000;2023-06-14T09:31:14;10.35;;;4.60;;
70761;SDS011;58360;0.000;0.000;2023-06-14T09:33:44;9.13;;;4.28;;
70761;SDS011;58360;0.000;0.000;2023-06-14T09:36:22;13.47;;;4.03;;
70761;SDS011;58360;0.000;0.000;2023-06-14T09:38:57;13.23;;;4.18;;
70761;SDS011;58360;0.000;0.000;2023-06-14T09:41:34;9.07;;;3.53;;
70761;SDS011;58360;0.000;0.000;2023-06-14T09:44:00;7.78;;;3.63;;
70761;SDS011;58360;0.000;0.000;2023-06-14T09:46:28;7.20;;;3.30;;
70761;SDS011;58360;0.000;0.000;2023-06-14T09:48:59;7.47;;;3.17;;
70761;SDS011;58360;0.000;0.000;2023-06-14T09:51:26;9.23;;;3.50;;
70761;SDS011;58360;0.000;0.000;2023-06-14T09:53:55;8.73;;;3.35;;
70761;SDS011;58360;0.000;0.000;2023-06-14T09:58:54;9.43;;;3.17;;
70761;SDS011;58360;0.000;0.000;2023-06-14T10:01:26;9.50;;;3.58;;
70761;SDS011;58360;0.000;0.000;2023-06-14T10:03:55;9.93;;;3.58;;
70761;SDS011;58360;0.000;0.000;2023-06-14T10:06:25;9.23;;;3.17;;
70761;SDS011;58360;0.000;0.000;2023-06-14T10:08:58;14.50;;;3.53;;
70761;SDS011;58360;0.000;0.000;2023-06-14T10:11:28;7.57;;;3.22;;
70761;SDS011;58360;0.000;0.000;2023-06-14T10:13:54;9.18;;;3.25;;
70761;SDS011;58360;0.000;0.000;2023-06-14T10:16:27;13.32;;;3.25;;
70761;SDS011;58360;0.000;0.000;2023-06-14T10:22:04;9.27;;;3.50;;
70761;SDS011;58360;0.000;0.000;2023-06-14T10:24:47;6.55;;;3.20;;
70761;SDS011;58360;0.000;0.000;2023-06-14T10:27:15;9.43;;;3.30;;
70761;SDS011;58360;0.000;0.000;2023-06-14T10:32:23;10.18;;;3.20;;
70761;SDS011;58360;0.000;0.000;2023-06-14T10:34:56;8.50;;;3.45;;
70761;SDS011;58360;0.000;0.000;2023-06-14T10:37:32;13.68;;;3.72;;
70761;SDS011;58360;0.000;0.000;2023-06-14T10:39:58;11.05;;;3.15;;
70761;SDS011;58360;0.000;0.000;2023-06-14T10:42:27;8.80;;;3.03;;
70761;SDS011;58360;0.000;0.000;2023-06-14T10:44:57;8.32;;;3.53;;
70761;SDS011;58360;0.000;0.000;2023-06-14T10:47:27;9.20;;;3.47;;
70761;SDS011;58360;0.000;0.000;2023-06-14T10:50:06;11.18;;;3.13;;
70761;SDS011;58360;0.000;0.000;2023-06-14T10:52:34;7.18;;;3.40;;
70761;SDS011;58360;0.000;0.000;2023-06-14T10:55:07;8.02;;;3.40;;
70761;SDS011;58360;0.000;0.000;2023-06-14T10:57:37;14.15;;;3.20;;
70761;SDS011;58360;0.000;0.000;2023-06-14T11:00:05;7.40;;;2.90;;
70761;SDS011;58360;0.000;0.000;2023-06-14T11:05:53;5.40;;;3.05;;
70761;SDS011;58360;0.000;0.000;2023-06-14T11:10:58;9.18;;;3.15;;
70761;SDS011;58360;0.000;0.000;2023-06-14T11:13:25;7.40;;;3.17;;
70761;SDS011;58360;0.000;0.000;2023-06-14T11:15:51;9.98;;;3.25;;
70761;SDS011;58360;0.000;0.000;2023-06-14T11:18:22;7.53;;;3.10;;
70761;SDS011;58360;0.000;0.000;2023-06-14T11:20:52;9.63;;;3.03;;
70761;SDS011;58360;0.000;0.000;2023-06-14T11:23:18;6.32;;;2.80;;
70761;SDS011;58360;0.000;0.000;2023-06-14T11:25:49;11.93;;;3.25;;
70761;SDS011;58360;0.000;0.000;2023-06-14T11:28:16;7.15;;;2.60;;
70761;SDS011;58360;0.000;0.000;2023-06-14T11:30:41;12.05;;;3.28;;
70761;SDS011;58360;0.000;0.000;2023-06-14T11:33:09;7.50;;;2.83;;
70761;SDS011;58360;0.000;0.000;2023-06-14T11:35:36;10.48;;;3.00;;
70761;SDS011;58360;0.000;0.000;2023-06-14T11:38:02;9.82;;;2.80;;
70761;SDS011;58360;0.000;0.000;2023-06-14T11:40:28;11.18;;;2.78;;
70761;SDS011;58360;0.000;0.000;2023-06-14T11:43:00;9.15;;;2.72;;
70761;SDS011;58360;0.000;0.000;2023-06-14T11:45:26;7.43;;;2.95;;
70761;SDS011;58360;0.000;0.000;2023-06-14T11:47:54;9.43;;;3.20;;
70761;SDS011;58360;0.000;0.000;2023-06-14T11:50:23;8.38;;;3.00;;
70761;SDS011;58360;0.000;0.000;2023-06-14T11:52:56;5.57;;;2.78;;
70761;SDS011;58360;0.000;0.000;2023-06-14T11:55:25;6.55;;;2.70;;
70761;SDS011;58360;0.000;0.000;2023-06-14T11:57:51;8.50;;;2.60;;
70761;SDS011;58360;0.000;0.000;2023-06-14T12:00:22;10.50;;;2.65;;
70761;SDS011;58360;0.000;0.000;2023-06-14T12:02:53;5.10;;;2.63;;
70761;SDS011;58360;0.000;0.000;2023-06-14T12:05:23;12.27;;;3.20;;
70761;SDS011;58360;0.000;0.000;2023-06-14T12:07:50;11.57;;;2.70;;
70761;SDS011;58360;0.000;0.000;2023-06-14T12:10:18;9.03;;;2.83;;
70761;SDS011;58360;0.000;0.000;2023-06-14T12:12:45;5.55;;;2.35;;
70761;SDS011;58360;0.000;0.000;2023-06-14T12:15:10;8.85;;;2.40;;
70761;SDS011;58360;0.000;0.000;2023-06-14T12:17:37;7.82;;;2.67;;
70761;SDS011;58360;0.000;0.000;2023-06-14T12:20:10;5.30;;;2.40;;
70761;SDS011;58360;0.000;0.000;2023-06-14T12:23:13;5.88;;;2.28;;
70761;SDS011;58360;0.000;0.000;2023-06-14T12:25:33;5.68;;;2.55;;
70761;SDS011;58360;0.000;0.000;2023-06-14T12:32:56;3.88;;;2.40;;
70761;SDS011;58360;0.000;0.000;2023-06-14T12:35:22;6.43;;;2.40;;
70761;SDS011;58360;0.000;0.000;2023-06-14T12:37:47;5.95;;;2.63;;
70761;SDS011;58360;0.000;0.000;2023-06-14T12:40:13;7.30;;;2.20;;
70761;SDS011;58360;0.000;0.000;2023-06-14T12:42:39;4.38;;;2.17;;
70761;SDS011;58360;0.000;0.000;2023-06-14T12:45:06;5.97;;;2.15;;
70761;SDS011;58360;0.000;0.000;2023-06-14T12:47:32;10.30;;;2.78;;
70761;SDS011;58360;0.000;0.000;2023-06-14T12:49:57;7.65;;;1.92;;
70761;SDS011;58360;0.000;0.000;2023-06-14T12:52:23;7.10;;;2.30;;
70761;SDS011;58360;0.000;0.000;2023-06-14T12:54:49;5.55;;;2.20;;
70761;SDS011;58360;0.000;0.000;2023-06-14T12:57:15;5.75;;;1.88;;
70761;SDS011;58360;0.000;0.000;2023-06-14T12:59:40;4.40;;;2.00;;
70761;SDS011;58360;0.000;0.000;2023-06-14T13:02:10;3.83;;;1.88;;
70761;SDS011;58360;0.000;0.000;2023-06-14T13:04:37;3.78;;;1.90;;
70761;SDS011;58360;0.000;0.000;2023-06-14T13:07:03;5.60;;;1.85;;
70761;SDS011;58360;0.000;0.000;2023-06-14T13:09:29;6.93;;;1.80;;
70761;SDS011;58360;0.000;0.000;2023-06-14T13:11:54;5.40;;;1.83;;
70761;SDS011;58360;0.000;0.000;2023-06-14T13:14:20;4.50;;;1.70;;
70761;SDS011;58360;0.000;0.000;2023-06-14T13:16:46;4.18;;;1.60;;
70761;SDS011;58360;0.000;0.000;2023-06-14T13:19:11;5.25;;;1.80;;
70761;SDS011;58360;0.000;0.000;2023-06-14T13:21:37;4.15;;;1.90;;
70761;SDS011;58360;0.000;0.000;2023-06-14T13:24:03;4.80;;;1.73;;
70761;SDS011;58360;0.000;0.000;2023-06-14T13:26:29;4.10;;;1.70;;
70761;SDS011;58360;0.000;0.000;2023-06-14T13:28:55;4.45;;;1.90;;
70761;SDS011;58360;0.000;0.000;2023-06-14T13:31:20;5.63;;;2.03;;
70761;SDS011;58360;0.000;0.000;2023-06-14T13:33:46;6.82;;;1.85;;
70761;SDS011;58360;0.000;0.000;2023-06-14T13:36:11;4.82;;;1.70;;
70761;SDS011;58360;0.000;0.000;2023-06-14T13:38:37;6.63;;;1.92;;
70761;SDS011;58360;0.000;0.000;2023-06-14T13:41:03;4.15;;;1.80;;
70761;SDS011;58360;0.000;0.000;2023-06-14T13:43:28;4.93;;;2.05;;
70761;SDS011;58360;0.000;0.000;2023-06-14T13:45:55;4.10;;;1.80;;
70761;SDS011;58360;0.000;0.000;2023-06-14T13:48:21;3.95;;;1.90;;
70761;SDS011;58360;0.000;0.000;2023-06-14T13:50:47;3.88;;;1.83;;
70761;SDS011;58360;0.000;0.000;2023-06-14T13:53:12;2.85;;;1.60;;
70761;SDS011;58360;0.000;0.000;2023-06-14T13:55:39;7.13;;;2.00;;
70761;SDS011;58360;0.000;0.000;2023-06-14T13:58:04;5.25;;;2.03;;
70761;SDS011;58360;0.000;0.000;2023-06-14T14:00:30;6.60;;;2.20;;
70761;SDS011;58360;0.000;0.000;2023-06-14T14:02:57;6.82;;;2.40;;
70761;SDS011;58360;0.000;0.000;2023-06-14T14:05:24;9.05;;;1.90;;
70761;SDS011;58360;0.000;0.000;2023-06-14T14:07:54;5.03;;;2.20;;
70761;SDS011;58360;0.000;0.000;2023-06-14T14:10:20;6.85;;;2.10;;
70761;SDS011;58360;0.000;0.000;2023-06-14T14:12:46;6.13;;;2.10;;
70761;SDS011;58360;0.000;0.000;2023-06-14T14:15:12;7.30;;;2.10;;
70761;SDS011;58360;0.000;0.000;2023-06-14T14:17:39;5.28;;;2.08;;
70761;SDS011;58360;0.000;0.000;2023-06-14T14:20:06;6.80;;;2.30;;
70761;SDS011;58360;0.000;0.000;2023-06-14T14:22:32;4.75;;;2.10;;
70761;SDS011;58360;0.000;0.000;2023-06-14T14:24:57;9.10;;;2.10;;
70761;SDS011;58360;0.000;0.000;2023-06-14T14:27:23;5.88;;;2.30;;
70761;SDS011;58360;0.000;0.000;2023-06-14T14:29:52;5.90;;;2.40;;
70761;SDS011;58360;0.000;0.000;2023-06-14T14:32:18;3.95;;;2.35;;
70761;SDS011;58360;0.000;0.000;2023-06-14T14:34:43;4.53;;;2.20;;
70761;SDS011;58360;0.000;0.000;2023-06-14T14:37:09;5.65;;;1.83;;
70761;SDS011;58360;0.000;0.000;2023-06-14T14:39:36;4.97;;;2.03;;
70761;SDS011;58360;0.000;0.000;2023-06-14T14:42:02;5.03;;;2.30;;
70761;SDS011;58360;0.000;0.000;2023-06-14T14:44:28;22.90;;;2.63;;
70761;SDS011;58360;0.000;0.000;2023-06-14T14:46:53;5.65;;;2.20;;
70761;SDS011;58360;0.000;0.000;2023-06-14T14:49:19;5.47;;;2.33;;
70761;SDS011;58360;0.000;0.000;2023-06-14T14:51:45;6.05;;;2.30;;
70761;SDS011;58360;0.000;0.000;2023-06-14T14:54:11;5.28;;;2.58;;
70761;SDS011;58360;0.000;0.000;2023-06-14T14:56:36;7.10;;;2.53;;
70761;SDS011;58360;0.000;0.000;2023-06-14T14:59:03;6.50;;;2.20;;
70761;SDS011;58360;0.000;0.000;2023-06-14T15:01:29;7.65;;;2.33;;
70761;SDS011;58360;0.000;0.000;2023-06-14T15:03:54;4.50;;;2.08;;
70761;SDS011;58360;0.000;0.000;2023-06-14T15:06:20;4.55;;;2.42;;
70761;SDS011;58360;0.000;0.000;2023-06-14T15:08:45;8.30;;;1.90;;
70761;SDS011;58360;0.000;0.000;2023-06-14T15:11:11;6.53;;;1.73;;
70761;SDS011;58360;0.000;0.000;2023-06-14T15:13:37;4.95;;;1.90;;
70761;SDS011;58360;0.000;0.000;2023-06-14T15:16:02;4.35;;;2.10;;
70761;SDS011;58360;0.000;0.000;2023-06-14T15:18:28;7.57;;;2.22;;
70761;SDS011;58360;0.000;0.000;2023-06-14T15:20:54;9.02;;;2.45;;
70761;SDS011;58360;0.000;0.000;2023-06-14T15:23:20;4.63;;;2.05;;